Time;durP1;ratioP1;P1;durP2;ratioP2;P2;SDS_P1;SDS_P2;PMS_P1;PMS_P2;Temp;Humidity;BMP_temperature;BMP_pressure;BME280_temperature;BME280_humidity;BME280_pressure;Samples;Min_cycle;Max_cycle;Signal;HPM_P1;HPM_P2
2023/06/28 00:03:15;;;;;;;2.53;0.98;;;28.60;49.30;;;;;;10505528;28;20045;-31
2023/06/28 00:08:16;;;;;;;1.63;0.75;;;28.50;49.30;;;;;;10500946;28;20189;-31
2023/06/28 00:13:20;;;;;;;2.08;0.85;;;28.50;49.40;;;;;;10500848;28;20075;-31
2023/06/28 00:18:21;;;;;;;2.17;1.00;;;28.50;49.40;;;;;;10505185;28;20369;-30
2023/06/28 00:23:24;;;;;;;2.25;1.02;;;28.50;49.60;;;;;;10495333;28;20052;-31
2023/06/28 00:28:27;;;;;;;4.18;1.13;;;28.50;49.60;;;;;;10484659;28;20102;-31
2023/06/28 00:33:29;;;;;;;1.75;0.82;;;28.40;49.70;;;;;;10485675;28;20536;-30
2023/06/28 00:38:30;;;;;;;1.63;0.80;;;28.40;49.70;;;;;;10475829;28;20098;-31
2023/06/28 00:43:33;;;;;;;1.85;0.88;;;28.40;49.80;;;;;;10479426;28;20115;-32
2023/06/28 00:48:35;;;;;;;2.13;0.90;;;28.30;49.90;;;;;;10477867;28;20102;-30
2023/06/28 00:53:38;;;;;;;4.13;1.00;;;28.30;50.00;;;;;;10471216;28;20127;-33
2023/06/28 00:58:41;;;;;;;3.28;0.98;;;28.30;50.00;;;;;;10472454;28;20424;-31
2023/06/28 01:03:43;;;;;;;2.55;0.98;;;28.30;50.10;;;;;;10482464;28;20148;-32
2023/06/28 01:08:46;;;;;;;2.63;0.82;;;28.30;50.20;;;;;;10457139;28;20406;-31
2023/06/28 01:13:49;;;;;;;1.75;0.80;;;28.20;50.10;;;;;;10480994;28;20068;-31
2023/06/28 01:18:51;;;;;;;5.18;1.35;;;28.20;50.30;;;;;;10471516;28;20486;-31
2023/06/28 01:23:55;;;;;;;1.95;0.88;;;28.20;50.30;;;;;;10500336;28;20131;-31
2023/06/28 01:28:57;;;;;;;2.00;1.00;;;28.10;50.40;;;;;;10481795;28;20060;-33
2023/06/28 01:33:59;;;;;;;3.85;1.00;;;28.10;50.50;;;;;;10467146;28;20095;-31
2023/06/28 01:39:02;;;;;;;1.92;0.93;;;28.10;50.50;;;;;;10471493;28;20045;-31
2023/06/28 01:44:04;;;;;;;1.98;1.00;;;28.10;50.70;;;;;;10471808;28;20080;-30
2023/06/28 01:49:07;;;;;;;3.95;0.98;;;27.90;51.00;;;;;;10482981;28;20068;-34
2023/06/28 01:54:10;;;;;;;4.07;1.10;;;28.00;50.80;;;;;;10475454;28;20182;-34
2023/06/28 01:59:12;;;;;;;2.83;1.00;;;28.00;50.90;;;;;;10477547;28;20209;-32
2023/06/28 02:04:14;;;;;;;4.97;0.93;;;27.90;50.90;;;;;;10483324;28;20136;-32
2023/06/28 02:09:17;;;;;;;2.55;0.95;;;27.90;51.20;;;;;;10461636;28;20132;-32
2023/06/28 02:14:19;;;;;;;2.47;1.05;;;27.90;51.10;;;;;;10488699;28;20430;-34
2023/06/28 02:19:21;;;;;;;1.92;0.90;;;27.90;51.10;;;;;;10466125;28;20072;-33
2023/06/28 02:24:25;;;;;;;5.03;1.08;;;27.70;51.50;;;;;;10489406;28;20175;-31
2023/06/28 02:29:27;;;;;;;3.05;0.70;;;27.80;51.20;;;;;;10485593;28;20075;-31
2023/06/28 02:34:28;;;;;;;2.33;0.90;;;27.90;51.20;;;;;;10459906;28;20053;-32
2023/06/28 02:39:32;;;;;;;3.10;1.08;;;27.80;51.20;;;;;;10482415;28;20094;-32
2023/06/28 02:44:34;;;;;;;4.22;0.90;;;27.80;51.40;;;;;;10465081;28;20318;-32
2023/06/28 02:49:36;;;;;;;1.77;0.90;;;27.80;51.30;;;;;;10472768;28;20070;-31
2023/06/28 02:54:41;;;;;;;2.05;1.02;;;27.80;51.30;;;;;;10471147;28;20052;-34
2023/06/28 03:15:29;;;;;;;2.60;0.98;;;27.40;51.70;;;;;;10559613;27;20120;-36
2023/06/28 03:20:31;;;;;;;3.10;0.93;;;27.50;51.80;;;;;;10568153;28;20095;-32
2023/06/28 03:25:33;;;;;;;1.38;1.00;;;27.60;51.70;;;;;;10567250;28;20437;-36
2023/06/28 03:30:36;;;;;;;3.13;1.20;;;27.70;51.70;;;;;;10566071;28;20087;-35
2023/06/28 03:35:38;;;;;;;3.40;0.90;;;27.60;51.70;;;;;;10567400;28;20043;-33
2023/06/28 03:40:40;;;;;;;2.20;0.75;;;27.60;51.70;;;;;;10567620;28;20141;-33
2023/06/28 03:45:43;;;;;;;1.92;0.80;;;27.60;51.70;;;;;;10569885;28;20075;-31
2023/06/28 03:50:45;;;;;;;3.60;1.00;;;27.60;51.80;;;;;;10568177;28;20112;-33
2023/06/28 03:55:46;;;;;;;1.42;0.90;;;27.60;51.80;;;;;;10566494;28;20130;-32
2023/06/28 04:00:50;;;;;;;2.17;0.90;;;27.60;51.60;;;;;;10569749;28;20051;-35
2023/06/28 04:05:51;;;;;;;2.22;0.98;;;27.60;51.90;;;;;;10566766;28;20055;-32
2023/06/28 04:10:53;;;;;;;2.13;0.90;;;27.50;51.80;;;;;;10555858;28;20142;-31
2023/06/28 04:15:57;;;;;;;1.85;0.90;;;27.60;52.00;;;;;;10565670;28;20044;-32
2023/06/28 04:20:59;;;;;;;2.17;1.13;;;27.60;52.00;;;;;;10564896;28;20040;-32
2023/06/28 04:26:00;;;;;;;4.75;1.42;;;27.60;52.10;;;;;;10541559;28;20123;-32
2023/06/28 04:31:04;;;;;;;1.48;0.90;;;27.60;52.20;;;;;;10535737;28;20160;-31
2023/06/28 04:36:06;;;;;;;3.63;1.15;;;27.50;52.30;;;;;;10536644;28;20533;-32
2023/06/28 04:41:08;;;;;;;2.70;1.00;;;27.60;52.30;;;;;;10536231;28;20134;-34
2023/06/28 04:46:11;;;;;;;4.97;1.33;;;27.60;52.50;;;;;;10529286;28;20104;-33
2023/06/28 04:51:13;;;;;;;5.00;1.83;;;27.50;52.50;;;;;;10529073;28;20058;-33
2023/06/28 04:56:15;;;;;;;4.70;1.63;;;27.40;52.70;;;;;;10535953;28;20109;-34
2023/06/28 05:01:19;;;;;;;9.90;1.92;;;27.50;52.80;;;;;;10535510;28;20071;-33
2023/06/28 05:06:20;;;;;;;6.88;1.65;;;27.50;52.80;;;;;;10532756;28;20125;-33
2023/06/28 05:11:22;;;;;;;5.20;1.75;;;27.50;52.90;;;;;;10533581;28;20144;-32
2023/06/28 05:16:25;;;;;;;6.82;1.90;;;27.40;53.20;;;;;;10523039;28;20442;-36
2023/06/28 05:21:27;;;;;;;6.85;1.75;;;27.50;53.10;;;;;;10531180;28;20080;-31
2023/06/28 05:26:29;;;;;;;5.03;1.60;;;27.50;53.10;;;;;;10529640;28;20127;-32
2023/06/28 05:31:32;;;;;;;9.15;1.73;;;27.50;53.40;;;;;;10527946;28;20143;-31
2023/06/28 05:36:34;;;;;;;4.85;1.50;;;27.50;53.50;;;;;;10530785;28;20071;-32
2023/06/28 05:41:36;;;;;;;7.32;1.75;;;27.50;53.50;;;;;;10534782;28;20468;-39
2023/06/28 05:46:39;;;;;;;4.75;1.45;;;27.50;53.50;;;;;;10531927;28;20453;-32
2023/06/28 05:51:41;;;;;;;8.98;1.90;;;27.40;53.60;;;;;;10536154;28;20043;-32
2023/06/28 05:56:44;;;;;;;8.15;1.70;;;27.40;53.70;;;;;;10516042;28;20542;-34
2023/06/28 06:01:47;;;;;;;3.40;1.35;;;27.40;53.80;;;;;;10508469;28;20106;-32
2023/06/28 06:06:49;;;;;;;4.43;1.63;;;27.50;53.80;;;;;;10528181;28;20093;-32
2023/06/28 06:11:51;;;;;;;4.93;1.70;;;27.50;53.80;;;;;;10534954;28;20086;-32
2023/06/28 06:16:54;;;;;;;3.03;2.03;;;27.40;53.90;;;;;;10536968;28;20131;-33
2023/06/28 06:21:56;;;;;;;4.68;1.92;;;27.30;54.10;;;;;;10530377;28;20052;-35
2023/06/28 06:26:58;;;;;;;10.57;1.90;;;27.50;54.00;;;;;;10524367;28;20101;-31
2023/06/28 06:32:01;;;;;;;6.05;1.80;;;27.20;54.70;;;;;;10530010;28;20087;-33
2023/06/28 06:37:04;;;;;;;5.68;1.90;;;27.20;54.60;;;;;;10539383;28;20155;-32
2023/06/28 06:42:07;;;;;;;8.68;1.75;;;27.20;54.50;;;;;;10530537;28;20040;-38
2023/06/28 06:47:10;;;;;;;7.03;1.50;;;27.30;54.40;;;;;;10523919;28;20415;-38
2023/06/28 06:52:12;;;;;;;3.65;1.48;;;27.30;54.20;;;;;;10542849;28;20063;-38
2023/06/28 06:57:15;;;;;;;8.43;2.28;;;27.30;54.20;;;;;;10531280;28;20040;-32
2023/06/28 07:02:19;;;;;;;5.88;1.77;;;27.40;54.00;;;;;;10522550;28;20098;-34
2023/06/28 07:07:21;;;;;;;3.97;1.80;;;27.40;54.00;;;;;;10519914;28;20075;-38
2023/06/28 07:12:23;;;;;;;6.15;2.13;;;27.10;54.60;;;;;;10530971;28;20138;-33
2023/06/28 07:17:26;;;;;;;9.18;2.35;;;27.10;54.90;;;;;;10530088;28;20064;-33
2023/06/28 07:22:28;;;;;;;3.63;1.73;;;27.20;54.70;;;;;;10528074;28;20044;-35
2023/06/28 07:27:30;;;;;;;7.65;3.08;;;27.20;54.50;;;;;;10529225;28;20451;-31
2023/06/28 07:32:34;;;;;;;4.43;1.65;;;27.00;55.40;;;;;;10530346;28;20075;-31
2023/06/28 07:37:36;;;;;;;7.50;2.60;;;27.20;54.90;;;;;;10528789;28;20462;-32
2023/06/28 07:42:40;;;;;;;3.92;1.65;;;27.30;54.70;;;;;;10529243;28;20044;-31
2023/06/28 07:47:43;;;;;;;4.85;2.10;;;27.10;55.20;;;;;;10528814;28;20052;-33
2023/06/28 07:52:45;;;;;;;4.90;1.88;;;27.30;54.70;;;;;;10531633;28;20180;-32
2023/06/28 07:57:46;;;;;;;3.25;1.75;;;27.30;54.70;;;;;;10530029;28;20083;-34
2023/06/28 08:02:50;;;;;;;10.00;2.70;;;27.10;55.50;;;;;;10535971;28;20055;-32
2023/06/28 08:07:54;;;;;;;15.52;4.45;;;27.20;55.50;;;;;;10547031;28;20534;-35
2023/06/28 08:12:56;;;;;;;6.53;2.95;;;27.00;56.10;;;;;;10541670;28;20066;-31
2023/06/28 08:18:01;;;;;;;8.38;2.95;;;26.90;56.30;;;;;;10535518;28;20068;-32
2023/06/28 08:23:03;;;;;;;4.07;2.58;;;26.40;58.00;;;;;;10535682;28;20556;-32
2023/06/28 08:28:05;;;;;;;16.65;5.50;;;26.60;56.80;;;;;;10535793;28;20079;-33
2023/06/28 08:33:08;;;;;;;13.40;5.32;;;26.60;59.70;;;;;;10535548;28;20138;-32
2023/06/28 08:38:11;;;;;;;13.25;4.65;;;25.20;66.20;;;;;;10535595;28;20083;-31
2023/06/28 08:43:16;;;;;;;14.65;5.45;;;24.90;67.60;;;;;;10535672;28;20484;-32
2023/06/28 08:48:20;;;;;;;9.93;3.15;;;25.40;66.50;;;;;;10535377;28;20151;-35
2023/06/28 08:53:24;;;;;;;15.15;5.47;;;25.30;65.40;;;;;;10537645;28;20105;-36
2023/06/28 08:58:26;;;;;;;17.55;6.13;;;24.90;71.90;;;;;;10534251;28;20522;-28
2023/06/28 09:03:31;;;;;;;17.45;3.40;;;25.20;64.30;;;;;;10533752;28;20500;-33
2023/06/28 09:08:33;;;;;;;11.77;4.53;;;24.90;65.20;;;;;;10525933;28;20048;-32
2023/06/28 09:13:35;;;;;;;18.63;6.75;;;24.50;68.20;;;;;;10541269;28;20048;-33
2023/06/28 09:18:39;;;;;;;12.73;4.70;;;24.40;72.70;;;;;;10541529;28;20093;-34
2023/06/28 09:23:41;;;;;;;13.02;4.72;;;24.90;66.30;;;;;;10533709;28;20067;-32
2023/06/28 09:28:43;;;;;;;9.45;3.50;;;25.00;66.70;;;;;;10533665;28;20094;-31
2023/06/28 09:33:53;;;;;;;12.95;5.30;;;25.40;65.60;;;;;;10533052;28;20052;-31
2023/06/28 09:38:57;;;;;;;13.57;5.47;;;24.90;67.00;;;;;;10532802;28;20494;-33
2023/06/28 09:44:01;;;;;;;13.75;5.57;;;24.70;68.40;;;;;;10533096;28;20530;-32
2023/06/28 09:49:04;;;;;;;18.77;7.40;;;25.80;63.30;;;;;;10526894;28;20048;-32
2023/06/28 09:54:06;;;;;;;16.40;6.47;;;25.60;63.80;;;;;;10535566;28;20047;-31
2023/06/28 09:59:09;;;;;;;11.20;5.93;;;25.90;64.10;;;;;;10532574;28;20055;-33
2023/06/28 10:04:13;;;;;;;14.85;6.07;;;24.70;71.60;;;;;;10531738;28;20048;-34
2023/06/28 10:09:16;;;;;;;11.13;5.78;;;24.90;67.80;;;;;;10531865;28;20465;-33
2023/06/28 10:14:21;;;;;;;13.57;6.38;;;26.00;62.90;;;;;;10535348;28;20048;-34
2023/06/28 10:19:24;;;;;;;12.65;6.07;;;25.60;64.80;;;;;;10531648;28;20516;-33
2023/06/28 10:24:31;;;;;;;11.50;5.53;;;25.90;66.00;;;;;;10530642;28;20101;-38
2023/06/28 10:29:33;;;;;;;9.45;4.68;;;26.30;61.40;;;;;;10531697;28;20093;-32
2023/06/28 10:34:38;;;;;;;17.30;6.88;;;25.90;62.90;;;;;;10530412;28;20683;-32
2023/06/28 10:39:40;;;;;;;16.20;6.90;;;26.10;69.10;;;;;;10531620;28;20079;-32
2023/06/28 10:44:52;;;;;;;23.08;8.07;;;26.30;62.70;;;;;;10537982;28;20058;-33
2023/06/28 10:50:12;;;;;;;12.65;5.70;;;25.70;65.20;;;;;;10529137;28;20044;-33
2023/06/28 10:55:17;;;;;;;11.70;5.85;;;25.90;63.40;;;;;;10536577;28;20500;-31
2023/06/28 11:00:45;;;;;;;10.07;5.20;;;26.10;65.60;;;;;;10529902;28;20125;-33
2023/06/28 11:05:55;;;;;;;18.73;8.20;;;26.00;69.90;;;;;;10528252;28;20093;-32
2023/06/28 11:10:58;;;;;;;18.40;7.88;;;25.50;68.00;;;;;;10530077;28;20120;-33
2023/06/28 11:16:08;;;;;;;13.15;5.10;;;25.20;68.30;;;;;;10534505;28;20051;-35
2023/06/28 11:21:16;;;;;;;11.38;5.88;;;26.20;64.00;;;;;;10529037;28;20479;-34
2023/06/28 11:26:31;;;;;;;14.45;5.70;;;26.10;68.80;;;;;;10529375;28;20117;-32
2023/06/28 11:31:40;;;;;;;16.77;7.32;;;26.00;64.30;;;;;;10522271;28;20086;-32
2023/06/28 11:36:44;;;;;;;25.27;8.90;;;26.10;71.20;;;;;;10540791;28;20058;-31
2023/06/28 11:41:46;;;;;;;15.15;7.60;;;26.10;64.70;;;;;;10537368;28;20134;-35
2023/06/28 11:46:48;;;;;;;16.98;7.88;;;26.00;65.70;;;;;;10542534;28;20060;-32
2023/06/28 11:51:53;;;;;;;17.58;8.57;;;26.20;68.70;;;;;;10536053;28;20780;-31
2023/06/28 11:56:55;;;;;;;22.83;9.02;;;26.00;70.80;;;;;;10537591;28;20407;-32
2023/06/28 12:02:03;;;;;;;14.32;7.25;;;25.90;71.20;;;;;;10536910;28;20063;-39
2023/06/28 12:07:07;;;;;;;17.92;8.48;;;25.80;66.40;;;;;;10536941;28;20119;-31
2023/06/28 12:12:09;;;;;;;14.63;7.40;;;25.70;67.30;;;;;;10536136;28;20052;-35
2023/06/28 12:17:11;;;;;;;12.60;5.63;;;25.80;68.70;;;;;;10539996;28;20067;-34
2023/06/28 12:22:15;;;;;;;18.25;7.55;;;25.70;66.50;;;;;;10534205;28;20040;-35
2023/06/28 12:27:17;;;;;;;13.05;6.05;;;24.90;77.20;;;;;;10544328;28;20144;-38
2023/06/28 12:32:23;;;;;;;15.88;5.90;;;25.50;72.80;;;;;;10537919;28;20069;-34
2023/06/28 12:37:35;;;;;;;17.63;7.70;;;25.40;75.40;;;;;;10537213;28;20204;-38
2023/06/28 12:42:38;;;;;;;18.77;7.55;;;26.10;68.30;;;;;;10535656;28;20078;-37
2023/06/28 12:47:42;;;;;;;15.80;7.93;;;25.60;74.40;;;;;;10530665;28;20044;-32
2023/06/28 12:52:45;;;;;;;18.38;6.90;;;25.60;71.30;;;;;;10538084;28;20054;-33
2023/06/28 12:57:47;;;;;;;17.48;6.57;;;26.20;69.90;;;;;;10536593;28;20427;-32
2023/06/28 13:02:50;;;;;;;15.88;7.60;;;26.80;66.60;;;;;;10537047;28;20106;-35
2023/06/28 13:07:53;;;;;;;10.90;5.00;;;27.20;66.20;;;;;;10535521;28;20076;-34
2023/06/28 13:12:55;;;;;;;16.58;7.05;;;26.90;66.20;;;;;;10534406;28;20147;-35
2023/06/28 13:17:57;;;;;;;17.90;7.00;;;26.40;70.80;;;;;;10536148;28;20048;-32
2023/06/28 13:23:00;;;;;;;9.57;5.70;;;26.10;69.60;;;;;;10538349;28;20078;-31
2023/06/28 13:28:02;;;;;;;14.18;7.50;;;26.60;68.20;;;;;;10532397;28;20138;-39
2023/06/28 13:33:04;;;;;;;14.40;6.68;;;25.90;70.70;;;;;;10532278;28;20150;-31
2023/06/28 13:38:07;;;;;;;14.30;7.07;;;26.10;72.50;;;;;;10540235;28;20078;-32
2023/06/28 13:43:10;;;;;;;13.25;7.93;;;26.10;71.00;;;;;;10536716;28;20048;-34
2023/06/28 13:48:12;;;;;;;10.48;6.25;;;26.30;71.30;;;;;;10531098;28;20319;-32
2023/06/28 13:53:15;;;;;;;16.50;6.15;;;26.90;66.30;;;;;;10532185;28;20076;-32
2023/06/28 13:58:17;;;;;;;11.57;6.22;;;26.90;66.40;;;;;;10523699;28;20064;-32
2023/06/28 14:03:19;;;;;;;11.95;5.35;;;27.30;65.90;;;;;;10530203;28;20136;-33
2023/06/28 14:08:22;;;;;;;13.95;6.32;;;27.50;64.80;;;;;;10528921;28;20452;-32
2023/06/28 14:13:24;;;;;;;10.75;5.63;;;27.10;66.40;;;;;;10540246;28;20083;-33
2023/06/28 14:18:26;;;;;;;11.00;5.40;;;28.00;64.20;;;;;;10526390;28;20437;-32
2023/06/28 14:23:29;;;;;;;8.57;5.13;;;28.10;61.70;;;;;;10529213;28;20075;-33
2023/06/28 14:28:31;;;;;;;10.75;5.47;;;28.30;63.30;;;;;;10532496;28;20047;-32
2023/06/28 14:33:33;;;;;;;9.55;4.97;;;28.70;59.70;;;;;;10530405;28;20135;-38
2023/06/28 14:38:36;;;;;;;11.52;5.90;;;28.90;58.80;;;;;;10531609;28;20048;-35
2023/06/28 14:43:38;;;;;;;12.68;6.25;;;28.10;61.60;;;;;;10529911;28;20131;-33
2023/06/28 14:48:40;;;;;;;9.73;5.47;;;29.10;59.20;;;;;;10525863;28;20075;-34
2023/06/28 14:53:43;;;;;;;12.38;6.70;;;28.60;61.30;;;;;;10533258;28;20113;-34
2023/06/28 14:58:45;;;;;;;8.05;4.60;;;28.70;59.40;;;;;;10531692;28;20190;-35
2023/06/28 15:03:47;;;;;;;12.73;5.75;;;29.30;59.30;;;;;;10531259;28;20079;-34
2023/06/28 15:08:50;;;;;;;11.13;5.38;;;28.50;60.30;;;;;;10529455;28;20131;-39
2023/06/28 15:13:52;;;;;;;7.28;4.32;;;28.50;59.60;;;;;;10531969;28;20151;-33
2023/06/28 15:18:54;;;;;;;8.20;4.53;;;29.30;58.90;;;;;;10530514;28;20044;-36
2023/06/28 15:23:57;;;;;;;7.57;4.45;;;29.30;59.50;;;;;;10527602;28;20048;-31
2023/06/28 15:29:01;;;;;;;8.32;4.88;;;28.90;59.40;;;;;;10531033;28;20044;-32
2023/06/28 15:34:03;;;;;;;9.73;5.05;;;28.90;59.00;;;;;;10532331;28;20044;-34
2023/06/28 15:39:07;;;;;;;10.30;5.38;;;29.50;58.70;;;;;;10534354;28;20041;-32
2023/06/28 15:44:09;;;;;;;9.63;5.72;;;29.40;59.20;;;;;;10512581;28;20472;-33
2023/06/28 15:49:11;;;;;;;8.52;4.85;;;29.00;57.70;;;;;;10523753;28;20131;-32
2023/06/28 15:54:14;;;;;;;7.38;4.55;;;29.20;60.70;;;;;;10528428;28;20136;-33
2023/06/28 15:59:16;;;;;;;14.07;6.22;;;29.80;61.20;;;;;;10518806;28;20079;-34
2023/06/28 16:04:18;;;;;;;6.50;4.60;;;29.50;57.90;;;;;;10530253;28;20131;-32
2023/06/28 16:09:21;;;;;;;10.05;5.13;;;28.90;60.20;;;;;;10526652;28;20099;-33
2023/06/28 16:14:23;;;;;;;11.95;5.57;;;29.30;60.00;;;;;;10533624;28;20101;-33
2023/06/28 16:19:26;;;;;;;8.65;5.32;;;30.00;58.80;;;;;;10529626;28;20452;-34
2023/06/28 16:24:29;;;;;;;6.13;3.90;;;29.90;57.20;;;;;;10530794;28;20043;-34
2023/06/28 16:29:31;;;;;;;6.75;3.97;;;29.60;59.10;;;;;;10533593;28;20123;-36
2023/06/28 16:34:33;;;;;;;7.32;4.25;;;30.10;57.50;;;;;;10533669;28;20047;-33
2023/06/28 16:39:37;;;;;;;8.52;5.22;;;30.10;57.80;;;;;;10526280;28;20408;-39
2023/06/28 16:44:38;;;;;;;11.90;5.63;;;30.20;56.80;;;;;;10537228;28;20134;-35
2023/06/28 16:49:40;;;;;;;15.88;5.43;;;29.70;59.00;;;;;;10530158;28;20123;-33
2023/06/28 16:54:44;;;;;;;7.78;4.43;;;30.60;56.60;;;;;;10535835;28;20087;-38
2023/06/28 16:59:46;;;;;;;11.27;5.28;;;30.50;56.20;;;;;;10532138;28;20113;-34
2023/06/28 17:04:48;;;;;;;9.55;4.05;;;30.20;57.80;;;;;;10534590;28;20407;-34
2023/06/28 17:09:54;;;;;;;8.25;4.75;;;30.80;55.80;;;;;;10535612;28;20044;-33
2023/06/28 17:14:56;;;;;;;7.03;4.40;;;30.70;55.40;;;;;;10529750;28;20461;-32
2023/06/28 17:19:58;;;;;;;9.10;5.65;;;31.20;55.00;;;;;;10530394;28;20048;-34
2023/06/28 17:25:01;;;;;;;10.02;5.13;;;30.30;53.50;;;;;;10531934;28;20048;-33
2023/06/28 17:30:03;;;;;;;12.55;5.95;;;31.00;54.70;;;;;;10530833;28;20623;-33
2023/06/28 17:35:07;;;;;;;6.63;4.68;;;30.00;55.40;;;;;;10532722;28;20063;-38
2023/06/28 17:40:10;;;;;;;6.18;4.57;;;30.90;55.30;;;;;;10532265;28;20121;-35
2023/06/28 17:45:12;;;;;;;8.68;5.53;;;31.40;53.90;;;;;;10528218;28;20728;-33
2023/06/28 17:50:14;;;;;;;8.27;4.80;;;31.30;54.00;;;;;;10524573;28;20090;-33
2023/06/28 17:55:17;;;;;;;5.85;4.65;;;31.00;54.50;;;;;;10532718;28;20139;-33
2023/06/28 18:00:19;;;;;;;8.93;5.00;;;31.30;54.90;;;;;;10530801;28;20487;-33
2023/06/28 18:05:21;;;;;;;11.02;5.85;;;31.40;53.50;;;;;;10531019;28;20138;-34
2023/06/28 18:10:25;;;;;;;9.60;4.70;;;31.50;53.20;;;;;;10530133;28;20135;-33
2023/06/28 18:15:27;;;;;;;7.80;5.18;;;31.60;53.20;;;;;;10534579;28;20080;-36
2023/06/28 18:20:29;;;;;;;7.30;5.05;;;31.50;53.80;;;;;;10529325;28;20079;-33
2023/06/28 18:25:32;;;;;;;7.03;4.90;;;31.50;53.10;;;;;;10529668;28;20044;-34
2023/06/28 18:30:34;;;;;;;9.18;5.70;;;31.20;53.70;;;;;;10530163;28;20068;-34
2023/06/28 18:35:36;;;;;;;7.72;5.75;;;31.30;53.50;;;;;;10527528;28;20071;-40
2023/06/28 18:40:39;;;;;;;9.00;4.85;;;31.30;53.80;;;;;;10530869;28;20075;-37
2023/06/28 18:45:42;;;;;;;7.93;5.05;;;31.10;54.10;;;;;;10520184;28;20098;-37
2023/06/28 18:50:45;;;;;;;11.38;6.28;;;31.10;53.90;;;;;;10530966;28;20201;-36
2023/06/28 18:55:48;;;;;;;10.00;5.60;;;30.90;54.40;;;;;;10529491;28;20400;-32
2023/06/28 19:00:50;;;;;;;8.70;5.40;;;30.80;54.50;;;;;;10535205;28;20130;-34
2023/06/28 19:05:52;;;;;;;8.43;5.78;;;30.60;55.00;;;;;;10528634;28;20040;-34
2023/06/28 19:10:55;;;;;;;9.18;5.72;;;31.00;54.30;;;;;;10533983;28;20794;-35
2023/06/28 19:15:57;;;;;;;8.90;5.55;;;31.10;54.00;;;;;;10521757;28;20112;-33
2023/06/28 19:20:59;;;;;;;10.02;5.68;;;30.80;55.30;;;;;;10528257;28;20458;-33
2023/06/28 19:26:02;;;;;;;10.60;5.78;;;30.90;54.40;;;;;;10533994;28;20140;-33
2023/06/28 19:31:04;;;;;;;8.73;5.38;;;30.80;54.10;;;;;;10524838;28;20067;-33
2023/06/28 19:36:07;;;;;;;9.75;5.78;;;30.80;54.40;;;;;;10527674;28;20157;-33
2023/06/28 19:41:10;;;;;;;11.13;6.30;;;30.80;54.30;;;;;;10529424;28;20097;-33
2023/06/28 19:46:13;;;;;;;10.00;5.38;;;30.70;54.10;;;;;;10530339;28;22606;-33
2023/06/28 19:51:15;;;;;;;8.23;5.30;;;30.80;54.10;;;;;;10531510;28;20079;-37
2023/06/28 19:56:19;;;;;;;8.90;5.15;;;30.60;54.60;;;;;;10533120;28;20732;-36
2023/06/28 20:01:21;;;;;;;12.50;5.85;;;30.80;54.20;;;;;;10536898;28;20054;-34
2023/06/28 20:06:23;;;;;;;12.57;5.30;;;30.70;54.20;;;;;;10536235;28;20142;-34
2023/06/28 20:11:26;;;;;;;11.25;5.78;;;30.50;54.40;;;;;;10535557;28;20079;-30
2023/06/28 20:16:28;;;;;;;12.10;6.03;;;30.50;55.10;;;;;;10531951;28;20156;-33
2023/06/28 20:21:30;;;;;;;16.77;5.93;;;30.50;54.30;;;;;;10534928;28;20686;-34
2023/06/28 20:26:34;;;;;;;21.52;7.68;;;30.50;54.30;;;;;;10533920;28;20040;-37
2023/06/28 20:31:36;;;;;;;20.88;8.23;;;30.40;54.60;;;;;;10537995;28;20055;-35
2023/06/28 20:36:38;;;;;;;17.77;6.70;;;30.50;54.50;;;;;;10535436;28;20078;-35
2023/06/28 20:41:45;;;;;;;27.38;7.90;;;30.50;54.40;;;;;;10537350;28;20036;-35
2023/06/28 20:46:47;;;;;;;24.77;8.18;;;30.40;54.50;;;;;;10535746;28;20040;-33
2023/06/28 20:51:49;;;;;;;18.00;8.02;;;30.40;54.40;;;;;;10537286;28;20101;-32
2023/06/28 20:56:54;;;;;;;17.05;8.00;;;30.20;54.60;;;;;;10546085;28;20048;-39
2023/06/28 21:01:56;;;;;;;21.20;7.53;;;30.20;54.60;;;;;;10536919;28;20044;-32
2023/06/28 21:06:58;;;;;;;16.58;7.63;;;30.20;54.60;;;;;;10535287;28;20101;-32
2023/06/28 21:12:01;;;;;;;19.27;8.95;;;30.20;54.60;;;;;;10542711;28;20144;-32
2023/06/28 21:17:03;;;;;;;21.90;8.48;;;30.00;54.50;;;;;;10530396;28;20742;-32
2023/06/28 21:22:06;;;;;;;17.70;8.77;;;30.10;54.60;;;;;;10540835;28;20222;-32
2023/06/28 21:27:09;;;;;;;21.20;7.45;;;30.10;54.70;;;;;;10533685;28;20051;-32
2023/06/28 21:32:11;;;;;;;19.67;8.18;;;30.00;54.80;;;;;;10537226;28;20550;-32
2023/06/28 21:37:13;;;;;;;22.65;7.53;;;30.00;54.80;;;;;;10534519;28;20089;-32
2023/06/28 21:42:17;;;;;;;15.55;8.30;;;30.00;54.80;;;;;;10535247;28;20070;-32
2023/06/28 21:47:19;;;;;;;17.92;8.25;;;30.00;54.80;;;;;;10517875;28;20219;-34
2023/06/28 21:52:21;;;;;;;17.90;8.07;;;29.90;54.90;;;;;;10534401;28;20052;-33
2023/06/28 21:57:24;;;;;;;16.08;7.82;;;29.90;54.90;;;;;;10537449;28;20548;-38
2023/06/28 22:02:26;;;;;;;15.07;8.75;;;29.80;55.30;;;;;;10528962;28;20131;-36
2023/06/28 22:07:28;;;;;;;17.92;9.00;;;29.80;55.20;;;;;;10528275;28;20047;-33
2023/06/28 22:12:31;;;;;;;15.43;8.88;;;29.60;55.40;;;;;;10534579;28;20055;-34
2023/06/28 22:17:35;;;;;;;16.50;8.93;;;29.80;55.30;;;;;;10529302;28;20059;-35
2023/06/28 22:22:38;;;;;;;15.90;8.18;;;29.80;55.30;;;;;;10533490;28;20734;-34
2023/06/28 22:27:41;;;;;;;15.23;7.97;;;29.80;55.30;;;;;;10534110;28;20054;-31
2023/06/28 22:32:46;;;;;;;19.02;8.85;;;29.70;55.30;;;;;;10540228;28;20134;-33
2023/06/28 22:37:47;;;;;;;14.48;8.93;;;29.60;55.40;;;;;;10533127;28;20044;-32
2023/06/28 22:42:51;;;;;;;16.70;8.95;;;29.40;55.80;;;;;;10540268;28;20060;-34
2023/06/28 22:47:54;;;;;;;14.40;8.07;;;29.40;55.90;;;;;;10526522;28;20131;-33
2023/06/28 22:52:57;;;;;;;18.23;9.00;;;29.40;55.90;;;;;;10533554;28;20040;-32
2023/06/28 22:58:00;;;;;;;14.52;7.97;;;29.50;55.70;;;;;;10528844;28;20105;-32
2023/06/28 23:03:02;;;;;;;11.40;8.02;;;29.40;55.80;;;;;;10533318;28;20043;-37
2023/06/28 23:08:04;;;;;;;12.25;8.15;;;29.40;55.90;;;;;;10528569;28;20110;-34
2023/06/28 23:13:10;;;;;;;12.95;8.48;;;29.40;55.90;;;;;;10529259;28;20434;-33
2023/06/28 23:18:19;;;;;;;16.95;9.38;;;29.40;55.80;;;;;;10528634;28;20048;-32
2023/06/28 23:23:22;;;;;;;15.80;9.30;;;29.20;56.30;;;;;;10542098;28;20040;-31
2023/06/28 23:28:28;;;;;;;12.38;8.20;;;29.20;56.30;;;;;;10533591;28;20101;-32
2023/06/28 23:33:30;;;;;;;16.80;8.68;;;29.30;56.10;;;;;;10546106;28;20632;-32
2023/06/28 23:38:32;;;;;;;13.18;8.75;;;29.30;56.20;;;;;;10539858;28;20044;-32
2023/06/28 23:43:40;;;;;;;12.05;8.07;;;29.30;56.30;;;;;;10539711;28;20489;-33
2023/06/28 23:48:44;;;;;;;12.93;8.57;;;29.20;56.30;;;;;;10543779;28;20076;-34
2023/06/28 23:53:46;;;;;;;12.77;8.70;;;29.20;56.40;;;;;;10537646;28;20036;-35
2023/06/28 23:58:49;;;;;;;14.63;9.05;;;29.20;56.90;;;;;;10537365;28;20060;-32
